Cincinnati, OH

7:26 AM EDT on September 21, 2014 (GMT -0400)
APRSWXNET Cincinnati OH US | Change Station
CLOSE
Current Station
Personal Weather Station
Location: College Hill, OH
Elevation: 898 ft
Nearby Weather Stations

Elev 898 ft 39.20 °N, 84.55 °W | Updated 438 days ago

Thunderstorm
Thunderstorm
68 °F
Feels Like 68 °F
N
9
Wind Variable Wind from WSW
Gusts 10 mph

Today
High -- | Low -- °F
--% Chance of Precip.
Yesterday
High -- | Low -- °F
Precip. -- in
7:24 AM 7:36 PM
Waning Crescent, 7% visible
Pressure 29.81 in
Visibility 10.0 miles
Clouds Scattered Clouds 12000 ft
Dew Point 64 °F
Humidity 88%
Rainfall -999.00 in
Snow Depth Not available.
UV 0 out of 12
Pollen 2.70 out of 12
Ozone Good
PM2.5 Moderate
Flu Activity Not available.
METAR KLUK 211053Z 24008KT 10SM SCT120 22/19 A2983 RMK AO2 SLP095 T02170189

More Conditions Fewer Conditions

Pressure 29.81 in
Visibility 10.0 miles
Clouds Scattered Clouds 12000 ft
Dew Point 64 °F
Humidity 88%
Rainfall -999.00 in
Snow Depth Not available.
UV 0 out of 12
Pollen 2.70 out of 12
Ozone Good
PM2.5 Moderate
Flu Activity Not available.
METAR KLUK 211053Z 24008KT 10SM SCT120 22/19 A2983 RMK AO2 SLP095 T02170189

More Conditions Fewer Conditions

10-Day Weather Forecast

Almanac

Astronomy

Sep. 21, 2014 Rise Set
Actual Time 7:24 AM EDT 7:36 PM EDT
Civil Twilight 6:58 AM EDT 8:03 PM EDT
Nautical Twilight 6:26 AM EDT 8:34 PM EDT
Astronomical Twilight 5:54 AM EDT 9:06 PM EDT
Moon 4:58 AM EDT 6:11 PM EDT
Length of Visible Light 13h 05m
Length of Day
12h 11m
Tomorrow will be 2m 32s shorter.
Waning Crescent, 7% of the Moon is Illuminated
Today
Waning Crescent
Sep 24
New
Oct 1
First Quarter
Oct 8
Full
Oct 15
Last Quarter

Today's Extremes

State Highs State Lows

Community

WunderPhotos

Upload Photos

1,755,122 photos uploaded!

Nearby

Air Quality

  Air Quality AQ Index Pollutant
Yesterday Good
PM10
Yesterday Good
OZONE
Current Moderate
PM2.5
Current Good
OZONE
Sunday Good
PM2.5
Sunday Good
OZONE
Monday Good
PM2.5
Monday Good
OZONE

Snow Depth

Station Depth Elevation
No new snow has been reported.

Earthquake Activity

City Distance Mag. Time & Date
No recent earthquake activity has been reported nearby.
Minimum magnitude displayed is 2.5.

Coastal Water Temperatures

Place Temperature
No Stations Reporting

Nearby Weather Stations